createdAt,value
2022-08-09T00:01:10.529Z,2.57
2022-08-09T00:04:00.712Z,2.47
2022-08-09T00:06:39.551Z,2.47
2022-08-09T00:09:17.826Z,2.80
2022-08-09T00:11:58.633Z,2.73
2022-08-09T00:14:38.457Z,2.70
2022-08-09T00:18:07.585Z,2.63
2022-08-09T00:20:02.941Z,2.50
2022-08-09T00:22:36.408Z,2.13
2022-08-09T00:25:10.177Z,2.50
2022-08-09T00:27:44.601Z,2.40
2022-08-09T00:30:25.085Z,2.50
2022-08-09T00:32:58.174Z,2.67
2022-08-09T00:35:42.915Z,2.23
2022-08-09T00:38:16.184Z,3.00
2022-08-09T00:40:54.109Z,2.43
2022-08-09T00:44:10.392Z,2.57
2022-08-09T00:46:55.350Z,2.60
2022-08-09T00:49:15.121Z,2.40
2022-08-09T00:51:55.947Z,3.57
2022-08-09T00:54:31.388Z,2.70
2022-08-09T00:57:08.928Z,2.43
2022-08-09T00:59:46.329Z,2.27
2022-08-09T01:02:25.752Z,2.47
2022-08-09T01:05:13.990Z,2.33
2022-08-09T01:08:09.346Z,2.50
2022-08-09T01:10:43.454Z,2.70
2022-08-09T01:13:53.225Z,2.70
2022-08-09T01:16:28.096Z,3.73
2022-08-09T01:19:04.960Z,2.50
2022-08-09T01:21:53.696Z,2.60
2022-08-09T01:24:50.481Z,2.80
2022-08-09T01:27:24.970Z,2.50
2022-08-09T01:30:00.606Z,2.53
2022-08-09T01:32:37.232Z,2.80
2022-08-09T01:35:38.109Z,2.67
2022-08-09T01:38:15.634Z,2.57
2022-08-09T01:41:05.199Z,2.60
2022-08-09T01:43:50.763Z,2.77
2022-08-09T01:46:33.432Z,2.67
2022-08-09T01:49:10.805Z,2.80
2022-08-09T01:51:54.771Z,2.90
2022-08-09T01:54:32.987Z,3.10
2022-08-09T01:57:10.564Z,2.70
2022-08-09T01:59:52.177Z,2.77
2022-08-09T02:02:30.962Z,3.27
2022-08-09T02:05:15.388Z,3.83
2022-08-09T02:08:35.321Z,2.70
2022-08-09T02:10:56.110Z,3.30
2022-08-09T02:13:40.358Z,3.00
2022-08-09T02:16:12.710Z,2.90
2022-08-09T02:18:48.376Z,3.10
2022-08-09T02:21:22.147Z,3.40
2022-08-09T02:23:56.675Z,3.00
2022-08-09T02:26:30.302Z,3.27
2022-08-09T02:29:14.264Z,2.90
2022-08-09T02:31:47.635Z,3.17
2022-08-09T02:34:41.608Z,3.10
2022-08-09T02:37:31.752Z,3.40
2022-08-09T02:40:09.286Z,3.50
2022-08-09T02:42:43.685Z,3.40
2022-08-09T02:45:26.604Z,3.30
2022-08-09T02:48:19.464Z,3.30
2022-08-09T02:51:02.525Z,3.03
2022-08-09T02:53:38.546Z,3.23
2022-08-09T02:56:15.869Z,3.97
2022-08-09T02:58:49.224Z,3.67
2022-08-09T03:01:29.553Z,3.47
2022-08-09T03:04:19.237Z,3.43
2022-08-09T03:06:52.030Z,3.27
2022-08-09T03:09:24.861Z,3.70
2022-08-09T03:12:09.608Z,4.30
2022-08-09T03:14:44.189Z,3.70
2022-08-09T03:17:26.758Z,3.40
2022-08-09T03:20:05.127Z,3.50
2022-08-09T03:22:46.949Z,3.77
2022-08-09T03:25:57.897Z,3.40
2022-08-09T03:28:24.702Z,3.50
2022-08-09T03:30:57.073Z,3.67
2022-08-09T03:33:53.509Z,3.60
2022-08-09T03:36:21.434Z,3.70
2022-08-09T03:38:59.893Z,4.33
2022-08-09T03:41:44.959Z,6.10
2022-08-09T03:44:22.420Z,5.30
2022-08-09T03:46:59.668Z,4.70
2022-08-09T03:49:35.789Z,5.00
2022-08-09T03:52:08.416Z,7.00
2022-08-09T03:54:40.984Z,6.03
2022-08-09T03:57:20.076Z,6.07
2022-08-09T03:59:55.982Z,5.53
2022-08-09T04:02:30.920Z,5.97
2022-08-09T04:05:05.975Z,5.73
2022-08-09T04:07:52.798Z,7.93
2022-08-09T04:10:30.370Z,7.80
2022-08-09T04:13:11.299Z,8.47
2022-08-09T04:16:19.803Z,7.43
2022-08-09T04:18:37.002Z,6.00
2022-08-09T04:21:10.726Z,6.63
2022-08-09T04:23:53.930Z,6.60
2022-08-09T04:26:35.165Z,5.27
2022-08-09T04:29:15.419Z,6.00
2022-08-09T04:31:47.833Z,5.90
2022-08-09T04:34:30.682Z,6.07
2022-08-09T04:37:04.129Z,5.90
2022-08-09T04:39:40.806Z,5.30
2022-08-09T04:42:15.889Z,5.10
2022-08-09T04:44:50.457Z,5.73
2022-08-09T04:47:26.448Z,6.10
2022-08-09T04:50:16.971Z,5.30
2022-08-09T04:52:57.041Z,5.40
2022-08-09T04:55:39.631Z,5.30
2022-08-09T04:58:22.098Z,6.43
2022-08-09T05:00:56.389Z,5.50
2022-08-09T05:03:40.190Z,5.80
2022-08-09T05:06:27.157Z,6.90
2022-08-09T05:09:01.282Z,6.97
2022-08-09T05:11:36.005Z,5.77
2022-08-09T05:14:08.209Z,8.67
2022-08-09T05:16:43.593Z,5.70
2022-08-09T05:19:31.704Z,5.77
2022-08-09T05:22:36.030Z,5.77
2022-08-09T05:25:09.132Z,5.40
2022-08-09T05:27:46.410Z,5.60
2022-08-09T05:30:20.100Z,5.70
2022-08-09T05:32:53.387Z,5.53
2022-08-09T05:35:25.465Z,9.00
2022-08-09T05:37:57.585Z,6.20
2022-08-09T05:40:30.467Z,7.57
2022-08-09T05:43:02.364Z,6.57
2022-08-09T05:45:52.781Z,5.47
2022-08-09T05:48:33.182Z,5.93
2022-08-09T05:51:41.529Z,5.67
2022-08-09T05:53:58.731Z,5.10
2022-08-09T05:56:32.845Z,5.03
2022-08-09T05:59:05.014Z,5.40
2022-08-09T06:01:42.630Z,5.60
2022-08-09T06:04:17.815Z,5.07
2022-08-09T06:06:55.657Z,5.53
2022-08-09T06:09:54.370Z,5.07
2022-08-09T06:12:19.603Z,5.67
2022-08-09T06:14:53.422Z,4.87
2022-08-09T06:17:25.360Z,5.03
2022-08-09T06:19:57.446Z,5.00
2022-08-09T06:22:29.429Z,4.60
2022-08-09T06:25:01.890Z,5.83
2022-08-09T06:27:43.002Z,4.77
2022-08-09T06:30:23.636Z,4.93
2022-08-09T06:33:00.238Z,5.10
2022-08-09T06:35:57.048Z,4.50
2022-08-09T06:38:47.195Z,4.20
2022-08-09T06:41:22.180Z,4.53
2022-08-09T06:43:56.851Z,5.40
2022-08-09T06:46:39.602Z,5.20
2022-08-09T06:49:12.866Z,5.03
2022-08-09T06:51:48.055Z,5.37
2022-08-09T06:54:21.390Z,5.20
2022-08-09T06:56:53.802Z,5.40
2022-08-09T07:00:51.634Z,5.37
2022-08-09T07:02:17.761Z,4.70
2022-08-09T07:04:49.728Z,4.80
2022-08-09T07:07:58.881Z,4.57
2022-08-09T07:10:29.607Z,4.70
2022-08-09T07:13:18.616Z,4.50
2022-08-09T07:16:41.087Z,5.40
2022-08-09T07:18:50.149Z,4.77
2022-08-09T07:21:22.139Z,4.83
2022-08-09T07:23:57.893Z,6.10
2022-08-09T07:26:30.400Z,4.50
2022-08-09T07:29:11.807Z,4.80
2022-08-09T07:31:48.088Z,4.73
2022-08-09T07:34:20.466Z,5.37
2022-08-09T07:36:55.535Z,5.77
2022-08-09T07:39:40.779Z,5.00
2022-08-09T07:42:14.283Z,4.73
2022-08-09T07:44:52.004Z,4.33
2022-08-09T07:47:24.853Z,4.77
2022-08-09T07:50:08.248Z,4.50
2022-08-09T07:52:43.063Z,4.60
2022-08-09T07:55:15.637Z,7.03
2022-08-09T07:57:48.726Z,3.90
2022-08-09T08:00:35.480Z,4.47
2022-08-09T08:03:09.748Z,4.80
2022-08-09T08:05:54.324Z,4.50
2022-08-09T08:09:02.746Z,5.10
2022-08-09T08:12:08.664Z,4.00
2022-08-09T08:14:24.188Z,4.33
2022-08-09T08:17:07.427Z,5.10
2022-08-09T08:19:41.093Z,3.37
2022-08-09T08:22:16.629Z,4.00
2022-08-09T08:24:51.592Z,5.17
2022-08-09T08:27:26.168Z,3.03
2022-08-09T08:29:58.500Z,3.87
2022-08-09T08:32:36.072Z,4.10
2022-08-09T08:35:24.378Z,3.40
2022-08-09T08:38:11.789Z,4.03
2022-08-09T08:40:43.861Z,3.73
2022-08-09T08:43:23.208Z,4.20
2022-08-09T08:46:04.100Z,3.47
2022-08-09T08:48:53.686Z,3.60
2022-08-09T08:51:26.047Z,3.60
2022-08-09T08:54:20.157Z,3.43
2022-08-09T08:56:53.216Z,3.13
2022-08-09T08:59:28.105Z,3.40
2022-08-09T09:02:31.415Z,6.17
2022-08-09T09:05:09.904Z,3.73
2022-08-09T09:07:50.508Z,3.00
2022-08-09T09:10:23.884Z,3.10
2022-08-09T09:12:59.531Z,3.53
2022-08-09T09:15:42.006Z,3.00
2022-08-09T09:18:21.359Z,3.17
2022-08-09T09:20:57.429Z,2.90
2022-08-09T09:23:58.019Z,3.73
2022-08-09T09:26:30.993Z,2.90
2022-08-09T09:29:11.316Z,2.43
2022-08-09T09:32:06.072Z,2.50
2022-08-09T09:34:45.051Z,2.93
2022-08-09T09:37:31.911Z,3.70
2022-08-09T09:40:05.918Z,3.63
2022-08-09T09:42:37.872Z,3.13
2022-08-09T09:45:14.374Z,4.13
2022-08-09T09:47:59.004Z,2.70
2022-08-09T09:50:51.242Z,2.77
2022-08-09T09:53:43.949Z,2.80
2022-08-09T09:56:30.816Z,3.03
2022-08-09T09:59:04.260Z,2.80
2022-08-09T10:01:40.785Z,2.63
2022-08-09T10:04:30.624Z,3.50
2022-08-09T10:07:03.278Z,3.70
2022-08-09T10:09:54.603Z,3.10
2022-08-09T10:12:31.373Z,3.00
2022-08-09T10:15:17.602Z,2.90
2022-08-09T10:18:12.679Z,3.33
2022-08-09T10:20:45.532Z,3.27
2022-08-09T10:23:20.498Z,4.57
2022-08-09T10:26:06.796Z,4.07
2022-08-09T10:28:49.090Z,2.53
2022-08-09T10:34:32.829Z,5.37
2022-08-09T10:37:09.778Z,4.67
2022-08-09T10:39:48.937Z,3.80
2022-08-09T10:42:26.928Z,3.73
2022-08-09T10:45:12.073Z,3.90
2022-08-09T10:48:20.417Z,2.97
2022-08-09T10:51:14.684Z,3.20
2022-08-09T10:54:12.523Z,3.80
2022-08-09T10:56:45.354Z,4.43
2022-08-09T10:59:55.603Z,3.80
2022-08-09T11:03:15.836Z,2.80
2022-08-09T11:05:31.164Z,2.57
2022-08-09T11:08:47.427Z,2.90
2022-08-09T11:11:20.605Z,2.80
2022-08-09T11:14:31.981Z,3.60
2022-08-09T11:17:19.257Z,3.73
2022-08-09T11:20:19.980Z,2.90
2022-08-09T11:22:58.475Z,4.03
2022-08-09T11:25:47.449Z,2.80
2022-08-09T11:28:54.370Z,3.07
2022-08-09T11:31:49.668Z,2.20
2022-08-09T11:34:33.904Z,3.40
2022-08-09T11:37:08.333Z,3.20
2022-08-09T11:40:08.215Z,2.30
2022-08-09T11:42:49.300Z,3.23
2022-08-09T11:45:43.491Z,4.57
2022-08-09T11:48:27.006Z,2.73
2022-08-09T11:52:48.887Z,2.90
2022-08-09T11:54:28.635Z,3.90
2022-08-09T11:58:00.589Z,3.40
2022-08-09T12:00:32.600Z,4.20
2022-08-09T12:03:55.590Z,2.80
2022-08-09T12:06:16.430Z,2.63
2022-08-09T12:08:53.440Z,2.60
2022-08-09T12:11:27.322Z,3.60
2022-08-09T12:14:28.483Z,2.63
2022-08-09T12:17:00.422Z,3.27
2022-08-09T12:19:52.559Z,3.20
2022-08-09T12:22:32.168Z,3.30
2022-08-09T12:25:14.783Z,2.23
2022-08-09T12:29:15.304Z,1.93
2022-08-09T12:30:39.858Z,2.40
2022-08-09T12:33:12.737Z,3.47
2022-08-09T12:35:47.949Z,4.17
2022-08-09T12:38:38.112Z,3.60
2022-08-09T12:41:10.752Z,2.30
2022-08-09T12:44:05.198Z,1.80
2022-08-09T12:46:37.410Z,2.60
2022-08-09T12:49:09.460Z,2.83
2022-08-09T12:52:02.181Z,2.93
2022-08-09T12:56:11.943Z,3.30
2022-08-09T12:57:48.012Z,3.13
2022-08-09T13:00:25.167Z,3.03
2022-08-09T13:02:59.954Z,1.87
2022-08-09T13:05:51.587Z,2.50
2022-08-09T13:08:40.676Z,2.40
2022-08-09T13:11:23.185Z,1.90
2022-08-09T13:14:43.996Z,2.17
2022-08-09T13:17:02.716Z,2.00
2022-08-09T13:20:07.365Z,2.27
2022-08-09T13:22:38.123Z,1.87
2022-08-09T13:25:24.394Z,2.83
2022-08-09T13:28:08.907Z,2.30
2022-08-09T13:30:50.882Z,3.43
2022-08-09T13:33:51.593Z,2.20
2022-08-09T13:36:41.242Z,2.77
2022-08-09T13:41:19.534Z,3.10
2022-08-09T13:42:12.501Z,4.37
2022-08-09T13:44:46.287Z,2.20
2022-08-09T13:47:31.042Z,1.90
2022-08-09T13:50:18.190Z,2.00
2022-08-09T13:53:01.333Z,2.00
2022-08-09T13:55:33.434Z,3.80
2022-08-09T13:58:11.490Z,6.40
2022-08-09T14:00:50.521Z,3.73
2022-08-09T14:04:03.654Z,1.93
2022-08-09T14:06:26.542Z,3.77
2022-08-09T14:08:58.888Z,1.97
2022-08-09T14:11:31.175Z,2.30
2022-08-09T14:14:23.377Z,1.80
2022-08-09T14:16:58.653Z,2.20
2022-08-09T14:19:33.582Z,3.87
2022-08-09T14:22:06.924Z,2.13
2022-08-09T14:24:53.690Z,4.63
2022-08-09T14:27:26.761Z,3.30
2022-08-09T14:30:36.596Z,2.57
2022-08-09T14:32:50.920Z,2.20
2022-08-09T14:35:23.028Z,2.10
2022-08-09T14:38:10.946Z,2.60
2022-08-09T14:41:04.251Z,2.30
2022-08-09T14:43:47.806Z,2.60
2022-08-09T14:46:54.414Z,2.20
2022-08-09T14:49:18.660Z,2.30
2022-08-09T14:51:58.419Z,2.50
2022-08-09T14:54:32.031Z,2.30
2022-08-09T14:57:06.161Z,2.00
2022-08-09T14:59:38.595Z,2.93
2022-08-09T15:02:11.482Z,3.20
2022-08-09T15:04:45.278Z,2.67
2022-08-09T15:07:19.928Z,2.50
2022-08-09T15:10:03.890Z,2.40
2022-08-09T15:12:45.073Z,2.87
2022-08-09T15:15:20.322Z,2.67
2022-08-09T15:17:53.482Z,1.90
2022-08-09T15:21:56.832Z,3.43
2022-08-09T15:24:09.238Z,2.50
2022-08-09T15:26:18.881Z,3.80
2022-08-09T15:29:04.276Z,2.97
2022-08-09T15:31:41.617Z,4.07
2022-08-09T15:34:32.803Z,2.60
2022-08-09T15:37:37.269Z,6.13
2022-08-09T15:40:15.556Z,3.23
2022-08-09T15:42:52.990Z,2.33
2022-08-09T15:45:29.529Z,2.23
2022-08-09T15:48:05.577Z,2.40
2022-08-09T15:50:48.467Z,2.20
2022-08-09T15:54:04.485Z,1.70
2022-08-09T15:56:21.578Z,3.37
2022-08-09T15:59:00.874Z,2.90
2022-08-09T16:01:35.365Z,2.30
2022-08-09T16:04:13.580Z,2.70
2022-08-09T16:06:50.498Z,2.77
2022-08-09T16:09:51.212Z,2.87
2022-08-09T16:12:15.718Z,2.43
2022-08-09T16:14:47.821Z,2.20
2022-08-09T16:17:19.907Z,2.57
2022-08-09T16:20:04.659Z,2.90
2022-08-09T16:22:42.349Z,2.90
2022-08-09T16:25:15.850Z,2.10
2022-08-09T16:27:48.047Z,3.00
2022-08-09T16:30:29.502Z,3.10
2022-08-09T16:33:11.456Z,2.90
2022-08-09T16:35:56.064Z,2.53
2022-08-09T16:38:32.143Z,3.07
2022-08-09T16:41:04.449Z,3.00
2022-08-09T16:43:40.526Z,3.40
2022-08-09T16:46:13.992Z,2.90
2022-08-09T16:48:54.766Z,2.37
2022-08-09T16:51:35.339Z,3.10
2022-08-09T16:54:25.760Z,2.20
2022-08-09T16:56:59.649Z,2.23
2022-08-09T16:59:34.587Z,3.40
2022-08-09T17:02:07.166Z,2.90
2022-08-09T17:04:40.382Z,2.83
2022-08-09T17:08:44.907Z,2.70
2022-08-09T17:10:06.913Z,3.23
2022-08-09T17:12:41.301Z,3.43
2022-08-09T17:15:31.120Z,3.87
2022-08-09T17:18:08.295Z,3.13
2022-08-09T17:20:50.823Z,2.67
2022-08-09T17:24:21.363Z,3.23
2022-08-09T17:26:17.689Z,2.70
2022-08-09T17:29:03.745Z,3.17
2022-08-09T17:31:39.070Z,3.23
2022-08-09T17:34:20.220Z,3.00
2022-08-09T17:37:04.865Z,2.90
2022-08-09T17:39:52.725Z,3.10
2022-08-09T17:42:42.095Z,3.10
2022-08-09T17:45:16.169Z,3.80
2022-08-09T17:48:02.752Z,2.87
2022-08-09T17:50:37.788Z,3.43
2022-08-09T17:53:19.202Z,3.63
2022-08-09T17:55:59.675Z,3.20
2022-08-09T17:58:33.107Z,3.23
2022-08-09T18:01:06.771Z,3.20
2022-08-09T18:03:38.915Z,3.20
2022-08-09T18:06:22.478Z,3.37
2022-08-09T18:09:05.941Z,3.83
2022-08-09T18:11:46.871Z,4.80
2022-08-09T18:14:31.013Z,3.47
2022-08-09T18:17:03.118Z,3.17
2022-08-09T18:20:54.790Z,3.10
2022-08-09T18:22:27.576Z,3.60
2022-08-09T18:25:06.652Z,3.43
2022-08-09T18:28:03.759Z,4.90
2022-08-09T18:30:39.329Z,3.20
2022-08-09T18:33:23.148Z,3.40
2022-08-09T18:35:58.827Z,3.30
2022-08-09T18:38:32.297Z,3.30
2022-08-09T18:41:04.272Z,3.27
2022-08-09T18:43:36.203Z,3.17
2022-08-09T18:46:50.910Z,4.00
2022-08-09T18:49:09.229Z,3.00
2022-08-09T18:51:57.666Z,2.90
2022-08-09T18:54:30.527Z,3.50
2022-08-09T18:57:06.262Z,3.73
2022-08-09T18:59:51.232Z,2.93
2022-08-09T19:02:31.903Z,3.77
2022-08-09T19:05:19.557Z,3.90
2022-08-09T19:08:04.084Z,3.00
2022-08-09T19:10:42.295Z,3.10
2022-08-09T19:13:22.469Z,3.10
2022-08-09T19:15:56.709Z,4.23
2022-08-09T19:18:33.925Z,3.50
2022-08-09T19:21:10.634Z,3.70
2022-08-09T19:24:31.947Z,3.00
2022-08-09T19:26:37.178Z,3.20
2022-08-09T19:29:18.354Z,3.40
2022-08-09T19:31:52.657Z,4.47
2022-08-09T19:34:36.795Z,2.80
2022-08-09T19:37:16.939Z,2.60
2022-08-09T19:40:04.140Z,2.90
2022-08-09T19:42:37.812Z,2.43
2022-08-09T19:45:11.155Z,2.83
2022-08-09T19:47:44.429Z,2.87
2022-08-09T19:50:50.392Z,3.20
2022-08-09T19:53:08.635Z,2.80
2022-08-09T19:56:02.449Z,3.03
2022-08-09T19:58:35.474Z,2.83
2022-08-09T20:01:08.167Z,3.00
2022-08-09T20:04:10.450Z,3.00
2022-08-09T20:06:32.476Z,2.70
2022-08-09T20:09:04.753Z,3.00
2022-08-09T20:11:45.227Z,3.50
2022-08-09T20:14:23.920Z,3.43
2022-08-09T20:16:57.670Z,3.73
2022-08-09T20:19:48.630Z,5.13
2022-08-09T20:22:24.210Z,3.27
2022-08-09T20:25:05.296Z,2.93
2022-08-09T20:27:39.764Z,3.47
2022-08-09T20:30:13.311Z,3.03
2022-08-09T20:32:52.506Z,4.50
2022-08-09T20:35:24.973Z,4.23
2022-08-09T20:38:21.567Z,10.77
2022-08-09T20:40:49.328Z,4.20
2022-08-09T20:43:24.704Z,4.07
2022-08-09T20:46:00.210Z,3.40
2022-08-09T20:48:36.586Z,2.77
2022-08-09T20:51:16.702Z,2.53
2022-08-09T20:53:52.098Z,2.80
2022-08-09T20:56:25.974Z,3.43
2022-08-09T20:58:59.146Z,3.50
2022-08-09T21:01:34.321Z,2.67
2022-08-09T21:05:52.140Z,2.17
2022-08-09T21:07:14.766Z,2.43
2022-08-09T21:09:56.067Z,2.80
2022-08-09T21:15:33.968Z,3.20
2022-08-09T21:18:22.018Z,2.73
2022-08-09T21:20:58.248Z,2.67
2022-08-09T21:23:47.827Z,2.50
2022-08-09T21:26:22.913Z,3.57
2022-08-09T21:28:57.151Z,3.00
2022-08-09T21:31:48.654Z,3.90
2022-08-09T21:34:29.041Z,3.13
2022-08-09T21:37:01.674Z,3.70
2022-08-09T21:39:42.040Z,3.63
2022-08-09T21:42:14.513Z,3.30
2022-08-09T21:44:46.660Z,3.47
2022-08-09T21:47:20.145Z,3.57
2022-08-09T21:49:52.326Z,3.37
2022-08-09T21:52:24.270Z,3.50
2022-08-09T21:54:59.490Z,3.47
2022-08-09T21:57:58.863Z,3.60
2022-08-09T22:00:33.207Z,4.57
2022-08-09T22:03:07.455Z,2.70
2022-08-09T22:05:44.369Z,2.90
2022-08-09T22:08:16.603Z,3.10
2022-08-09T22:11:00.495Z,3.20
2022-08-09T22:13:43.454Z,3.57
2022-08-09T22:16:15.576Z,3.40
2022-08-09T22:18:53.872Z,3.40
2022-08-09T22:21:45.086Z,3.50
2022-08-09T22:24:21.034Z,3.03
2022-08-09T22:26:56.835Z,3.80
2022-08-09T22:29:38.367Z,3.60
2022-08-09T22:32:29.650Z,2.80
2022-08-09T22:35:06.388Z,3.57
2022-08-09T22:37:40.444Z,3.70
2022-08-09T22:40:20.087Z,3.87
2022-08-09T22:42:52.576Z,3.57
2022-08-09T22:48:13.476Z,2.93
2022-08-09T22:48:34.963Z,3.30
2022-08-09T22:51:10.831Z,3.40
2022-08-09T22:54:01.070Z,3.90
2022-08-09T22:56:35.018Z,3.07
2022-08-09T22:59:55.194Z,3.33
2022-08-09T23:02:00.004Z,3.40
2022-08-09T23:04:32.860Z,3.60
2022-08-09T23:07:31.010Z,2.87
2022-08-09T23:10:15.057Z,3.33
2022-08-09T23:12:47.178Z,3.30
2022-08-09T23:15:19.128Z,3.50
2022-08-09T23:17:51.064Z,3.23
2022-08-09T23:20:23.874Z,3.60
2022-08-09T23:22:55.937Z,3.43
2022-08-09T23:25:28.118Z,3.47
2022-08-09T23:28:14.952Z,3.77
2022-08-09T23:30:51.263Z,4.07
2022-08-09T23:33:24.429Z,3.37
2022-08-09T23:36:04.649Z,3.10
2022-08-09T23:38:48.788Z,3.50
2022-08-09T23:41:28.692Z,3.40
2022-08-09T23:44:02.431Z,3.23
2022-08-09T23:46:34.779Z,2.97
2022-08-09T23:49:06.954Z,4.10
2022-08-09T23:51:38.862Z,3.67
2022-08-09T23:54:10.712Z,3.47
2022-08-09T23:56:54.778Z,3.30
2022-08-09T23:59:48.216Z,3.00
